sensor_id;sensor_type;location;lat;lon;timestamp;P1;durP1;ratioP1;P2;durP2;ratioP2
23519;SDS011;11936;50.820;4.336;2023-03-13T00:01:56;11.77;;;3.55;;
23519;SDS011;11936;50.820;4.336;2023-03-13T00:04:22;16.73;;;4.45;;
23519;SDS011;11936;50.820;4.336;2023-03-13T00:06:47;19.77;;;5.10;;
23519;SDS011;11936;50.820;4.336;2023-03-13T00:09:14;14.38;;;4.90;;
23519;SDS011;11936;50.820;4.336;2023-03-13T00:11:41;12.05;;;4.03;;
23519;SDS011;11936;50.820;4.336;2023-03-13T00:14:07;12.85;;;3.95;;
23519;SDS011;11936;50.820;4.336;2023-03-13T00:16:33;16.63;;;4.25;;
23519;SDS011;11936;50.820;4.336;2023-03-13T00:19:01;15.87;;;4.40;;
23519;SDS011;11936;50.820;4.336;2023-03-13T00:21:28;14.18;;;4.38;;
23519;SDS011;11936;50.820;4.336;2023-03-13T00:23:54;15.50;;;4.15;;
23519;SDS011;11936;50.820;4.336;2023-03-13T00:26:21;16.98;;;3.97;;
23519;SDS011;11936;50.820;4.336;2023-03-13T00:28:48;13.98;;;4.30;;
23519;SDS011;11936;50.820;4.336;2023-03-13T00:33:48;9.98;;;3.70;;
23519;SDS011;11936;50.820;4.336;2023-03-13T00:38:46;10.35;;;3.80;;
23519;SDS011;11936;50.820;4.336;2023-03-13T00:41:13;12.20;;;3.85;;
23519;SDS011;11936;50.820;4.336;2023-03-13T00:43:41;11.48;;;3.40;;
23519;SDS011;11936;50.820;4.336;2023-03-13T00:46:08;7.45;;;2.70;;
23519;SDS011;11936;50.820;4.336;2023-03-13T00:48:35;6.85;;;2.88;;
23519;SDS011;11936;50.820;4.336;2023-03-13T00:51:01;9.38;;;3.05;;
23519;SDS011;11936;50.820;4.336;2023-03-13T00:53:27;10.00;;;3.13;;
23519;SDS011;11936;50.820;4.336;2023-03-13T00:55:54;6.95;;;3.03;;
23519;SDS011;11936;50.820;4.336;2023-03-13T00:58:22;5.60;;;3.35;;
23519;SDS011;11936;50.820;4.336;2023-03-13T01:00:49;7.13;;;3.42;;
23519;SDS011;11936;50.820;4.336;2023-03-13T01:03:15;7.72;;;3.50;;
23519;SDS011;11936;50.820;4.336;2023-03-13T01:05:41;9.85;;;4.25;;
23519;SDS011;11936;50.820;4.336;2023-03-13T01:08:07;8.65;;;4.40;;
23519;SDS011;11936;50.820;4.336;2023-03-13T01:10:32;9.88;;;4.75;;
23519;SDS011;11936;50.820;4.336;2023-03-13T01:12:58;7.65;;;4.28;;
23519;SDS011;11936;50.820;4.336;2023-03-13T01:15:24;6.55;;;4.70;;
23519;SDS011;11936;50.820;4.336;2023-03-13T01:17:50;8.38;;;4.65;;
23519;SDS011;11936;50.820;4.336;2023-03-13T01:20:15;6.20;;;4.35;;
23519;SDS011;11936;50.820;4.336;2023-03-13T01:22:41;8.75;;;4.63;;
23519;SDS011;11936;50.820;4.336;2023-03-13T01:25:07;7.88;;;4.60;;
23519;SDS011;11936;50.820;4.336;2023-03-13T01:27:32;11.27;;;5.55;;
23519;SDS011;11936;50.820;4.336;2023-03-13T01:29:58;9.45;;;5.18;;
23519;SDS011;11936;50.820;4.336;2023-03-13T01:32:24;9.98;;;5.15;;
23519;SDS011;11936;50.820;4.336;2023-03-13T01:34:49;10.73;;;5.32;;
23519;SDS011;11936;50.820;4.336;2023-03-13T01:37:15;6.90;;;4.70;;
23519;SDS011;11936;50.820;4.336;2023-03-13T01:39:40;8.90;;;5.15;;
23519;SDS011;11936;50.820;4.336;2023-03-13T01:42:06;8.32;;;4.40;;
23519;SDS011;11936;50.820;4.336;2023-03-13T01:44:51;9.32;;;5.10;;
23519;SDS011;11936;50.820;4.336;2023-03-13T01:47:19;11.48;;;5.10;;
23519;SDS011;11936;50.820;4.336;2023-03-13T01:49:44;9.27;;;5.20;;
23519;SDS011;11936;50.820;4.336;2023-03-13T01:52:14;8.88;;;4.97;;
23519;SDS011;11936;50.820;4.336;2023-03-13T01:54:57;5.25;;;4.70;;
23519;SDS011;11936;50.820;4.336;2023-03-13T01:57:30;7.50;;;4.88;;
23519;SDS011;11936;50.820;4.336;2023-03-13T02:00:10;8.77;;;4.47;;
23519;SDS011;11936;50.820;4.336;2023-03-13T02:02:41;9.50;;;4.88;;
23519;SDS011;11936;50.820;4.336;2023-03-13T02:05:10;10.68;;;4.47;;
23519;SDS011;11936;50.820;4.336;2023-03-13T02:07:42;7.85;;;4.53;;
23519;SDS011;11936;50.820;4.336;2023-03-13T02:10:12;11.88;;;5.20;;
23519;SDS011;11936;50.820;4.336;2023-03-13T02:15:07;6.00;;;4.15;;
23519;SDS011;11936;50.820;4.336;2023-03-13T02:17:40;7.03;;;4.05;;
23519;SDS011;11936;50.820;4.336;2023-03-13T02:20:09;6.68;;;3.90;;
23519;SDS011;11936;50.820;4.336;2023-03-13T02:27:47;5.40;;;4.03;;
23519;SDS011;11936;50.820;4.336;2023-03-13T02:30:50;8.23;;;4.30;;
23519;SDS011;11936;50.820;4.336;2023-03-13T02:33:19;6.18;;;3.60;;
23519;SDS011;11936;50.820;4.336;2023-03-13T02:35:46;6.60;;;3.70;;
23519;SDS011;11936;50.820;4.336;2023-03-13T02:38:17;6.25;;;3.80;;
23519;SDS011;11936;50.820;4.336;2023-03-13T02:40:47;4.20;;;3.67;;
23519;SDS011;11936;50.820;4.336;2023-03-13T02:43:36;6.97;;;3.53;;
23519;SDS011;11936;50.820;4.336;2023-03-13T02:46:09;4.82;;;3.25;;
23519;SDS011;11936;50.820;4.336;2023-03-13T02:48:39;4.70;;;3.55;;
23519;SDS011;11936;50.820;4.336;2023-03-13T02:51:21;3.72;;;3.25;;
23519;SDS011;11936;50.820;4.336;2023-03-13T02:54:01;4.45;;;3.40;;
23519;SDS011;11936;50.820;4.336;2023-03-13T02:56:35;4.53;;;3.20;;
23519;SDS011;11936;50.820;4.336;2023-03-13T02:59:02;4.75;;;3.65;;
23519;SDS011;11936;50.820;4.336;2023-03-13T03:01:27;5.78;;;3.97;;
23519;SDS011;11936;50.820;4.336;2023-03-13T03:03:53;4.40;;;3.28;;
23519;SDS011;11936;50.820;4.336;2023-03-13T03:06:19;4.10;;;2.72;;
23519;SDS011;11936;50.820;4.336;2023-03-13T03:08:44;7.78;;;3.75;;
23519;SDS011;11936;50.820;4.336;2023-03-13T03:11:10;4.13;;;3.10;;
23519;SDS011;11936;50.820;4.336;2023-03-13T03:13:36;5.60;;;3.17;;
23519;SDS011;11936;50.820;4.336;2023-03-13T03:16:06;5.50;;;3.45;;
23519;SDS011;11936;50.820;4.336;2023-03-13T03:18:36;8.02;;;3.15;;
23519;SDS011;11936;50.820;4.336;2023-03-13T03:21:02;7.07;;;3.10;;
23519;SDS011;11936;50.820;4.336;2023-03-13T03:23:30;8.93;;;2.70;;
23519;SDS011;11936;50.820;4.336;2023-03-13T03:25:56;4.68;;;3.10;;
23519;SDS011;11936;50.820;4.336;2023-03-13T03:28:22;5.63;;;3.00;;
23519;SDS011;11936;50.820;4.336;2023-03-13T03:30:47;4.68;;;2.97;;
23519;SDS011;11936;50.820;4.336;2023-03-13T03:33:13;4.43;;;2.70;;
23519;SDS011;11936;50.820;4.336;2023-03-13T03:35:38;4.47;;;2.50;;
23519;SDS011;11936;50.820;4.336;2023-03-13T03:38:04;4.57;;;2.45;;
23519;SDS011;11936;50.820;4.336;2023-03-13T03:40:30;6.00;;;2.92;;
23519;SDS011;11936;50.820;4.336;2023-03-13T03:42:56;8.35;;;3.10;;
23519;SDS011;11936;50.820;4.336;2023-03-13T03:45:21;4.10;;;2.33;;
23519;SDS011;11936;50.820;4.336;2023-03-13T03:47:47;5.45;;;2.65;;
23519;SDS011;11936;50.820;4.336;2023-03-13T03:50:12;5.25;;;2.90;;
23519;SDS011;11936;50.820;4.336;2023-03-13T03:52:38;4.45;;;2.83;;
23519;SDS011;11936;50.820;4.336;2023-03-13T03:55:04;3.20;;;2.58;;
23519;SDS011;11936;50.820;4.336;2023-03-13T03:57:30;7.07;;;2.85;;
23519;SDS011;11936;50.820;4.336;2023-03-13T03:59:55;3.75;;;2.35;;
23519;SDS011;11936;50.820;4.336;2023-03-13T04:02:21;4.78;;;2.85;;
23519;SDS011;11936;50.820;4.336;2023-03-13T04:04:46;5.30;;;2.30;;
23519;SDS011;11936;50.820;4.336;2023-03-13T04:07:12;4.55;;;2.25;;
23519;SDS011;11936;50.820;4.336;2023-03-13T04:09:37;5.93;;;2.47;;
23519;SDS011;11936;50.820;4.336;2023-03-13T04:12:03;5.80;;;2.75;;
23519;SDS011;11936;50.820;4.336;2023-03-13T04:14:29;5.13;;;2.67;;
23519;SDS011;11936;50.820;4.336;2023-03-13T04:16:54;6.43;;;3.25;;
23519;SDS011;11936;50.820;4.336;2023-03-13T04:19:20;4.15;;;2.35;;
23519;SDS011;11936;50.820;4.336;2023-03-13T04:21:46;5.60;;;2.65;;
23519;SDS011;11936;50.820;4.336;2023-03-13T04:24:11;4.78;;;2.40;;
23519;SDS011;11936;50.820;4.336;2023-03-13T04:26:37;5.30;;;2.63;;
23519;SDS011;11936;50.820;4.336;2023-03-13T04:29:02;4.00;;;2.78;;
23519;SDS011;11936;50.820;4.336;2023-03-13T04:31:30;5.40;;;2.13;;
23519;SDS011;11936;50.820;4.336;2023-03-13T04:33:56;4.43;;;2.28;;
23519;SDS011;11936;50.820;4.336;2023-03-13T04:36:21;2.90;;;1.98;;
23519;SDS011;11936;50.820;4.336;2023-03-13T04:38:47;4.20;;;2.10;;
23519;SDS011;11936;50.820;4.336;2023-03-13T04:41:12;8.38;;;3.00;;
23519;SDS011;11936;50.820;4.336;2023-03-13T04:43:38;4.75;;;2.10;;
23519;SDS011;11936;50.820;4.336;2023-03-13T04:46:04;4.78;;;2.30;;
23519;SDS011;11936;50.820;4.336;2023-03-13T04:48:29;5.38;;;2.70;;
23519;SDS011;11936;50.820;4.336;2023-03-13T04:50:55;7.32;;;2.78;;
23519;SDS011;11936;50.820;4.336;2023-03-13T04:53:20;5.80;;;2.70;;
23519;SDS011;11936;50.820;4.336;2023-03-13T04:55:46;5.68;;;2.38;;
23519;SDS011;11936;50.820;4.336;2023-03-13T04:58:13;4.85;;;2.33;;
23519;SDS011;11936;50.820;4.336;2023-03-13T05:00:39;8.35;;;3.13;;
23519;SDS011;11936;50.820;4.336;2023-03-13T05:03:05;6.50;;;2.78;;
23519;SDS011;11936;50.820;4.336;2023-03-13T05:05:32;5.13;;;2.30;;
23519;SDS011;11936;50.820;4.336;2023-03-13T05:07:59;6.82;;;2.47;;
23519;SDS011;11936;50.820;4.336;2023-03-13T05:10:24;11.90;;;2.85;;
23519;SDS011;11936;50.820;4.336;2023-03-13T05:12:50;6.88;;;2.88;;
23519;SDS011;11936;50.820;4.336;2023-03-13T05:15:16;6.55;;;3.00;;
23519;SDS011;11936;50.820;4.336;2023-03-13T05:17:41;5.00;;;3.03;;
23519;SDS011;11936;50.820;4.336;2023-03-13T05:20:07;9.02;;;3.22;;
23519;SDS011;11936;50.820;4.336;2023-03-13T05:22:35;5.10;;;2.55;;
23519;SDS011;11936;50.820;4.336;2023-03-13T05:25:01;9.02;;;2.70;;
23519;SDS011;11936;50.820;4.336;2023-03-13T05:27:28;6.63;;;2.25;;
23519;SDS011;11936;50.820;4.336;2023-03-13T05:29:53;8.73;;;2.92;;
23519;SDS011;11936;50.820;4.336;2023-03-13T05:32:19;6.63;;;2.28;;
23519;SDS011;11936;50.820;4.336;2023-03-13T05:34:44;8.65;;;2.63;;
23519;SDS011;11936;50.820;4.336;2023-03-13T05:37:10;8.95;;;3.20;;
23519;SDS011;11936;50.820;4.336;2023-03-13T05:39:35;9.82;;;2.80;;
23519;SDS011;11936;50.820;4.336;2023-03-13T05:42:01;13.95;;;3.22;;
23519;SDS011;11936;50.820;4.336;2023-03-13T05:44:27;8.15;;;2.83;;
23519;SDS011;11936;50.820;4.336;2023-03-13T05:46:52;6.90;;;2.90;;
23519;SDS011;11936;50.820;4.336;2023-03-13T05:49:18;7.88;;;2.92;;
23519;SDS011;11936;50.820;4.336;2023-03-13T05:51:43;7.85;;;3.00;;
23519;SDS011;11936;50.820;4.336;2023-03-13T05:54:09;12.60;;;2.90;;
23519;SDS011;11936;50.820;4.336;2023-03-13T05:56:34;7.38;;;2.53;;
23519;SDS011;11936;50.820;4.336;2023-03-13T05:59:00;7.90;;;2.88;;
23519;SDS011;11936;50.820;4.336;2023-03-13T06:01:25;8.13;;;2.70;;
23519;SDS011;11936;50.820;4.336;2023-03-13T06:03:51;8.60;;;2.95;;
23519;SDS011;11936;50.820;4.336;2023-03-13T06:06:17;11.55;;;3.17;;
23519;SDS011;11936;50.820;4.336;2023-03-13T06:08:42;11.15;;;2.80;;
23519;SDS011;11936;50.820;4.336;2023-03-13T06:11:08;11.63;;;2.85;;
23519;SDS011;11936;50.820;4.336;2023-03-13T06:13:33;10.40;;;3.08;;
23519;SDS011;11936;50.820;4.336;2023-03-13T06:15:59;11.82;;;3.58;;
23519;SDS011;11936;50.820;4.336;2023-03-13T06:18:25;10.15;;;2.90;;
23519;SDS011;11936;50.820;4.336;2023-03-13T06:20:58;12.98;;;3.05;;
23519;SDS011;11936;50.820;4.336;2023-03-13T06:23:25;12.52;;;2.83;;
23519;SDS011;11936;50.820;4.336;2023-03-13T06:25:51;11.05;;;3.42;;
23519;SDS011;11936;50.820;4.336;2023-03-13T06:28:16;13.05;;;3.50;;
23519;SDS011;11936;50.820;4.336;2023-03-13T06:30:42;6.88;;;3.10;;
23519;SDS011;11936;50.820;4.336;2023-03-13T06:33:08;9.40;;;2.90;;
23519;SDS011;11936;50.820;4.336;2023-03-13T06:35:33;9.52;;;2.95;;
23519;SDS011;11936;50.820;4.336;2023-03-13T06:37:59;8.10;;;3.00;;
23519;SDS011;11936;50.820;4.336;2023-03-13T06:40:24;10.40;;;3.88;;
23519;SDS011;11936;50.820;4.336;2023-03-13T06:42:50;14.30;;;3.50;;
23519;SDS011;11936;50.820;4.336;2023-03-13T06:45:15;8.55;;;2.35;;
23519;SDS011;11936;50.820;4.336;2023-03-13T06:47:41;11.00;;;4.00;;
23519;SDS011;11936;50.820;4.336;2023-03-13T06:50:07;10.48;;;3.63;;
23519;SDS011;11936;50.820;4.336;2023-03-13T06:52:33;7.60;;;2.90;;
23519;SDS011;11936;50.820;4.336;2023-03-13T06:55:00;10.63;;;4.00;;
23519;SDS011;11936;50.820;4.336;2023-03-13T06:57:26;12.13;;;3.65;;
23519;SDS011;11936;50.820;4.336;2023-03-13T06:59:52;10.15;;;2.80;;
23519;SDS011;11936;50.820;4.336;2023-03-13T07:02:17;6.63;;;2.67;;
23519;SDS011;11936;50.820;4.336;2023-03-13T07:04:43;8.52;;;2.80;;
23519;SDS011;11936;50.820;4.336;2023-03-13T07:07:10;14.57;;;3.30;;
23519;SDS011;11936;50.820;4.336;2023-03-13T07:09:36;9.23;;;2.95;;
23519;SDS011;11936;50.820;4.336;2023-03-13T07:12:01;7.75;;;2.88;;
23519;SDS011;11936;50.820;4.336;2023-03-13T07:14:28;7.72;;;2.92;;
23519;SDS011;11936;50.820;4.336;2023-03-13T07:16:54;15.18;;;3.42;;
23519;SDS011;11936;50.820;4.336;2023-03-13T07:19:22;16.02;;;3.90;;
23519;SDS011;11936;50.820;4.336;2023-03-13T07:21:47;10.85;;;2.83;;
23519;SDS011;11936;50.820;4.336;2023-03-13T07:24:13;6.07;;;2.55;;
23519;SDS011;11936;50.820;4.336;2023-03-13T07:26:39;5.13;;;2.65;;
23519;SDS011;11936;50.820;4.336;2023-03-13T07:29:05;5.40;;;2.38;;
23519;SDS011;11936;50.820;4.336;2023-03-13T07:31:30;8.23;;;3.03;;
23519;SDS011;11936;50.820;4.336;2023-03-13T07:33:58;9.65;;;2.70;;
23519;SDS011;11936;50.820;4.336;2023-03-13T07:36:24;7.93;;;2.67;;
23519;SDS011;11936;50.820;4.336;2023-03-13T07:38:50;10.27;;;2.70;;
23519;SDS011;11936;50.820;4.336;2023-03-13T07:41:16;6.65;;;2.88;;
23519;SDS011;11936;50.820;4.336;2023-03-13T07:43:42;10.23;;;2.85;;
23519;SDS011;11936;50.820;4.336;2023-03-13T07:46:16;14.60;;;3.50;;
23519;SDS011;11936;50.820;4.336;2023-03-13T07:48:44;10.63;;;3.42;;
23519;SDS011;11936;50.820;4.336;2023-03-13T07:51:16;10.02;;;3.00;;
23519;SDS011;11936;50.820;4.336;2023-03-13T07:53:44;12.07;;;3.20;;
23519;SDS011;11936;50.820;4.336;2023-03-13T07:56:15;7.95;;;2.60;;
23519;SDS011;11936;50.820;4.336;2023-03-13T07:58:42;10.23;;;2.70;;
23519;SDS011;11936;50.820;4.336;2023-03-13T08:01:19;7.50;;;3.10;;
23519;SDS011;11936;50.820;4.336;2023-03-13T08:03:46;11.27;;;3.20;;
23519;SDS011;11936;50.820;4.336;2023-03-13T08:06:17;6.22;;;3.03;;
23519;SDS011;11936;50.820;4.336;2023-03-13T08:08:44;9.20;;;3.00;;
23519;SDS011;11936;50.820;4.336;2023-03-13T08:11:11;4.15;;;2.75;;
23519;SDS011;11936;50.820;4.336;2023-03-13T08:13:38;4.97;;;2.63;;
23519;SDS011;11936;50.820;4.336;2023-03-13T08:16:14;7.72;;;2.63;;
23519;SDS011;11936;50.820;4.336;2023-03-13T08:18:42;7.65;;;2.55;;
23519;SDS011;11936;50.820;4.336;2023-03-13T08:21:10;7.35;;;2.58;;
23519;SDS011;11936;50.820;4.336;2023-03-13T08:23:40;5.72;;;2.97;;
23519;SDS011;11936;50.820;4.336;2023-03-13T08:28:34;9.68;;;3.20;;
23519;SDS011;11936;50.820;4.336;2023-03-13T08:31:17;12.70;;;3.70;;
23519;SDS011;11936;50.820;4.336;2023-03-13T08:33:44;6.15;;;2.83;;
23519;SDS011;11936;50.820;4.336;2023-03-13T08:38:37;4.10;;;2.40;;
23519;SDS011;11936;50.820;4.336;2023-03-13T08:41:03;6.15;;;3.45;;
23519;SDS011;11936;50.820;4.336;2023-03-13T08:43:29;4.85;;;2.45;;
23519;SDS011;11936;50.820;4.336;2023-03-13T08:45:55;5.05;;;3.00;;
23519;SDS011;11936;50.820;4.336;2023-03-13T08:48:20;6.15;;;2.83;;
23519;SDS011;11936;50.820;4.336;2023-03-13T08:50:46;6.32;;;2.55;;
23519;SDS011;11936;50.820;4.336;2023-03-13T08:53:12;7.07;;;2.70;;
23519;SDS011;11936;50.820;4.336;2023-03-13T08:55:38;6.85;;;2.50;;
23519;SDS011;11936;50.820;4.336;2023-03-13T08:58:03;10.65;;;2.60;;
23519;SDS011;11936;50.820;4.336;2023-03-13T09:00:29;5.28;;;2.70;;
23519;SDS011;11936;50.820;4.336;2023-03-13T09:02:57;8.63;;;2.47;;
23519;SDS011;11936;50.820;4.336;2023-03-13T09:05:23;5.45;;;2.30;;
23519;SDS011;11936;50.820;4.336;2023-03-13T09:07:49;5.43;;;2.40;;
23519;SDS011;11936;50.820;4.336;2023-03-13T09:10:14;4.28;;;2.38;;
23519;SDS011;11936;50.820;4.336;2023-03-13T09:12:40;4.72;;;2.55;;
23519;SDS011;11936;50.820;4.336;2023-03-13T09:15:06;7.75;;;2.47;;
23519;SDS011;11936;50.820;4.336;2023-03-13T09:17:32;4.50;;;2.22;;
23519;SDS011;11936;50.820;4.336;2023-03-13T09:19:58;6.43;;;2.90;;
23519;SDS011;11936;50.820;4.336;2023-03-13T09:22:23;5.68;;;2.10;;
23519;SDS011;11936;50.820;4.336;2023-03-13T09:24:49;5.20;;;1.83;;
23519;SDS011;11936;50.820;4.336;2023-03-13T09:27:14;7.22;;;2.00;;
23519;SDS011;11936;50.820;4.336;2023-03-13T09:29:40;5.97;;;1.83;;
23519;SDS011;11936;50.820;4.336;2023-03-13T09:32:06;4.72;;;1.75;;
23519;SDS011;11936;50.820;4.336;2023-03-13T09:34:34;4.70;;;1.58;;
23519;SDS011;11936;50.820;4.336;2023-03-13T09:36:59;5.93;;;2.38;;
23519;SDS011;11936;50.820;4.336;2023-03-13T09:39:25;5.15;;;2.05;;
23519;SDS011;11936;50.820;4.336;2023-03-13T09:41:57;8.32;;;2.05;;
23519;SDS011;11936;50.820;4.336;2023-03-13T09:44:37;7.28;;;1.75;;
23519;SDS011;11936;50.820;4.336;2023-03-13T09:47:15;10.43;;;2.20;;
23519;SDS011;11936;50.820;4.336;2023-03-13T09:49:57;4.00;;;2.10;;
23519;SDS011;11936;50.820;4.336;2023-03-13T09:52:45;4.70;;;1.70;;
23519;SDS011;11936;50.820;4.336;2023-03-13T10:00:37;3.40;;;1.80;;
23519;SDS011;11936;50.820;4.336;2023-03-13T10:05:42;3.45;;;2.00;;
23519;SDS011;11936;50.820;4.336;2023-03-13T10:08:35;5.50;;;1.88;;
23519;SDS011;11936;50.820;4.336;2023-03-13T10:11:09;4.38;;;2.10;;
23519;SDS011;11936;50.820;4.336;2023-03-13T10:13:41;6.65;;;1.88;;
23519;SDS011;11936;50.820;4.336;2023-03-13T10:16:38;5.60;;;1.80;;
23519;SDS011;11936;50.820;4.336;2023-03-13T10:19:16;4.88;;;1.58;;
23519;SDS011;11936;50.820;4.336;2023-03-13T10:21:52;6.35;;;1.90;;
23519;SDS011;11936;50.820;4.336;2023-03-13T10:24:32;8.15;;;2.00;;
23519;SDS011;11936;50.820;4.336;2023-03-13T10:27:01;4.53;;;2.00;;
23519;SDS011;11936;50.820;4.336;2023-03-13T10:29:27;6.00;;;2.17;;
23519;SDS011;11936;50.820;4.336;2023-03-13T10:34:22;4.53;;;1.60;;
23519;SDS011;11936;50.820;4.336;2023-03-13T10:36:53;3.83;;;1.35;;
23519;SDS011;11936;50.820;4.336;2023-03-13T10:39:24;3.38;;;2.00;;
23519;SDS011;11936;50.820;4.336;2023-03-13T10:41:55;5.65;;;1.70;;
23519;SDS011;11936;50.820;4.336;2023-03-13T10:44:35;3.78;;;1.85;;
23519;SDS011;11936;50.820;4.336;2023-03-13T10:47:01;3.08;;;1.52;;
23519;SDS011;11936;50.820;4.336;2023-03-13T10:49:29;9.02;;;2.60;;
23519;SDS011;11936;50.820;4.336;2023-03-13T10:52:00;7.75;;;1.98;;
23519;SDS011;11936;50.820;4.336;2023-03-13T10:54:31;9.80;;;2.88;;
23519;SDS011;11936;50.820;4.336;2023-03-13T10:59:50;6.50;;;2.00;;
23519;SDS011;11936;50.820;4.336;2023-03-13T11:02:19;7.13;;;2.15;;
23519;SDS011;11936;50.820;4.336;2023-03-13T11:04:55;6.50;;;1.50;;
23519;SDS011;11936;50.820;4.336;2023-03-13T11:12:23;3.60;;;1.40;;
23519;SDS011;11936;50.820;4.336;2023-03-13T11:14:54;4.28;;;1.50;;
23519;SDS011;11936;50.820;4.336;2023-03-13T11:17:38;5.40;;;1.70;;
23519;SDS011;11936;50.820;4.336;2023-03-13T11:22:48;6.15;;;1.85;;
23519;SDS011;11936;50.820;4.336;2023-03-13T11:25:38;9.13;;;1.67;;
23519;SDS011;11936;50.820;4.336;2023-03-13T11:28:24;5.40;;;1.60;;
23519;SDS011;11936;50.820;4.336;2023-03-13T11:31:14;4.00;;;1.70;;
23519;SDS011;11936;50.820;4.336;2023-03-13T11:33:49;7.60;;;1.80;;
23519;SDS011;11936;50.820;4.336;2023-03-13T11:36:42;6.55;;;1.45;;
23519;SDS011;11936;50.820;4.336;2023-03-13T11:39:24;5.72;;;1.60;;
23519;SDS011;11936;50.820;4.336;2023-03-13T11:52:57;10.40;;;1.67;;
23519;SDS011;11936;50.820;4.336;2023-03-13T11:55:36;9.45;;;1.90;;
23519;SDS011;11936;50.820;4.336;2023-03-13T12:01:11;5.78;;;1.75;;
23519;SDS011;11936;50.820;4.336;2023-03-13T12:03:41;2.30;;;1.38;;
23519;SDS011;11936;50.820;4.336;2023-03-13T12:06:33;3.13;;;1.15;;
23519;SDS011;11936;50.820;4.336;2023-03-13T12:09:15;4.82;;;2.00;;
23519;SDS011;11936;50.820;4.336;2023-03-13T12:12:01;4.72;;;1.30;;
23519;SDS011;11936;50.820;4.336;2023-03-13T12:14:36;0.90;;;0.90;;
23519;SDS011;11936;50.820;4.336;2023-03-13T12:17:08;3.50;;;1.60;;
23519;SDS011;11936;50.820;4.336;2023-03-13T12:20:35;6.40;;;1.80;;
23519;SDS011;11936;50.820;4.336;2023-03-13T12:23:15;3.50;;;1.52;;
23519;SDS011;11936;50.820;4.336;2023-03-13T12:25:44;2.35;;;1.02;;
23519;SDS011;11936;50.820;4.336;2023-03-13T12:28:18;5.15;;;1.30;;
23519;SDS011;11936;50.820;4.336;2023-03-13T12:33:54;7.07;;;1.50;;
23519;SDS011;11936;50.820;4.336;2023-03-13T12:37:11;5.38;;;1.25;;
23519;SDS011;11936;50.820;4.336;2023-03-13T12:45:23;11.27;;;1.95;;
23519;SDS011;11936;50.820;4.336;2023-03-13T12:53:19;3.67;;;0.90;;
23519;SDS011;11936;50.820;4.336;2023-03-13T12:56:09;5.57;;;1.70;;
23519;SDS011;11936;50.820;4.336;2023-03-13T13:01:32;5.70;;;1.25;;
23519;SDS011;11936;50.820;4.336;2023-03-13T13:04:04;5.50;;;1.80;;
23519;SDS011;11936;50.820;4.336;2023-03-13T13:09:58;5.85;;;1.38;;
23519;SDS011;11936;50.820;4.336;2023-03-13T13:12:38;5.63;;;1.38;;
23519;SDS011;11936;50.820;4.336;2023-03-13T13:15:29;5.07;;;1.20;;
23519;SDS011;11936;50.820;4.336;2023-03-13T13:20:39;5.32;;;1.40;;
23519;SDS011;11936;50.820;4.336;2023-03-13T13:28:48;4.75;;;1.50;;
23519;SDS011;11936;50.820;4.336;2023-03-13T13:36:52;3.67;;;1.35;;
23519;SDS011;11936;50.820;4.336;2023-03-13T13:45:03;11.20;;;1.90;;
23519;SDS011;11936;50.820;4.336;2023-03-13T13:47:41;6.10;;;1.63;;
23519;SDS011;11936;50.820;4.336;2023-03-13T13:50:24;6.90;;;1.98;;
23519;SDS011;11936;50.820;4.336;2023-03-13T13:52:52;4.32;;;1.30;;
23519;SDS011;11936;50.820;4.336;2023-03-13T13:59:05;10.00;;;1.52;;
23519;SDS011;11936;50.820;4.336;2023-03-13T14:01:39;5.95;;;1.80;;
23519;SDS011;11936;50.820;4.336;2023-03-13T14:06:52;22.08;;;2.88;;
23519;SDS011;11936;50.820;4.336;2023-03-13T14:09:27;5.20;;;2.03;;
23519;SDS011;11936;50.820;4.336;2023-03-13T14:12:01;5.72;;;1.75;;
23519;SDS011;11936;50.820;4.336;2023-03-13T14:14:47;6.80;;;2.03;;
23519;SDS011;11936;50.820;4.336;2023-03-13T14:17:12;5.13;;;1.60;;
23519;SDS011;11936;50.820;4.336;2023-03-13T14:19:41;5.78;;;1.80;;
23519;SDS011;11936;50.820;4.336;2023-03-13T14:22:07;7.60;;;2.38;;
23519;SDS011;11936;50.820;4.336;2023-03-13T14:24:35;3.65;;;1.60;;
23519;SDS011;11936;50.820;4.336;2023-03-13T14:27:01;6.68;;;2.10;;
23519;SDS011;11936;50.820;4.336;2023-03-13T14:29:39;6.90;;;1.75;;
23519;SDS011;11936;50.820;4.336;2023-03-13T14:32:05;5.15;;;1.90;;
23519;SDS011;11936;50.820;4.336;2023-03-13T14:34:31;5.28;;;1.80;;
23519;SDS011;11936;50.820;4.336;2023-03-13T14:36:57;12.07;;;1.90;;
23519;SDS011;11936;50.820;4.336;2023-03-13T14:39:41;8.57;;;1.63;;
23519;SDS011;11936;50.820;4.336;2023-03-13T14:42:13;8.25;;;1.88;;
23519;SDS011;11936;50.820;4.336;2023-03-13T14:44:40;6.18;;;2.10;;
23519;SDS011;11936;50.820;4.336;2023-03-13T14:50:00;8.02;;;1.77;;
23519;SDS011;11936;50.820;4.336;2023-03-13T14:52:29;5.25;;;1.70;;
23519;SDS011;11936;50.820;4.336;2023-03-13T14:55:04;6.82;;;1.77;;
23519;SDS011;11936;50.820;4.336;2023-03-13T14:57:32;6.65;;;2.00;;
23519;SDS011;11936;50.820;4.336;2023-03-13T15:00:44;6.25;;;2.25;;
23519;SDS011;11936;50.820;4.336;2023-03-13T15:05:41;8.23;;;2.00;;
23519;SDS011;11936;50.820;4.336;2023-03-13T15:08:15;6.97;;;2.03;;
23519;SDS011;11936;50.820;4.336;2023-03-13T15:10:42;11.40;;;2.08;;
23519;SDS011;11936;50.820;4.336;2023-03-13T15:13:13;5.32;;;2.00;;
23519;SDS011;11936;50.820;4.336;2023-03-13T15:15:40;10.75;;;2.05;;
23519;SDS011;11936;50.820;4.336;2023-03-13T15:18:12;3.25;;;1.42;;
23519;SDS011;11936;50.820;4.336;2023-03-13T15:20:43;7.63;;;2.13;;
23519;SDS011;11936;50.820;4.336;2023-03-13T15:23:12;6.75;;;2.03;;
23519;SDS011;11936;50.820;4.336;2023-03-13T15:25:39;9.63;;;2.22;;
23519;SDS011;11936;50.820;4.336;2023-03-13T15:28:08;6.53;;;1.75;;
23519;SDS011;11936;50.820;4.336;2023-03-13T15:30:40;6.82;;;2.08;;
23519;SDS011;11936;50.820;4.336;2023-03-13T15:33:10;5.63;;;1.73;;
23519;SDS011;11936;50.820;4.336;2023-03-13T15:35:40;8.07;;;2.58;;
23519;SDS011;11936;50.820;4.336;2023-03-13T15:38:14;12.95;;;2.22;;
23519;SDS011;11936;50.820;4.336;2023-03-13T15:40:44;10.50;;;2.42;;
23519;SDS011;11936;50.820;4.336;2023-03-13T15:43:10;11.18;;;2.17;;
23519;SDS011;11936;50.820;4.336;2023-03-13T15:45:37;11.70;;;2.80;;
23519;SDS011;11936;50.820;4.336;2023-03-13T15:48:36;12.18;;;2.83;;
23519;SDS011;11936;50.820;4.336;2023-03-13T15:51:00;5.03;;;1.90;;
23519;SDS011;11936;50.820;4.336;2023-03-13T15:53:29;8.52;;;2.13;;
23519;SDS011;11936;50.820;4.336;2023-03-13T15:55:57;5.35;;;1.80;;
23519;SDS011;11936;50.820;4.336;2023-03-13T15:58:24;8.23;;;2.47;;
23519;SDS011;11936;50.820;4.336;2023-03-13T16:00:51;13.13;;;2.45;;
23519;SDS011;11936;50.820;4.336;2023-03-13T16:03:18;6.85;;;2.08;;
23519;SDS011;11936;50.820;4.336;2023-03-13T16:05:46;13.45;;;2.47;;
23519;SDS011;11936;50.820;4.336;2023-03-13T16:08:19;9.40;;;1.88;;
23519;SDS011;11936;50.820;4.336;2023-03-13T16:10:46;10.93;;;2.60;;
23519;SDS011;11936;50.820;4.336;2023-03-13T16:13:13;6.05;;;2.47;;
23519;SDS011;11936;50.820;4.336;2023-03-13T16:15:38;8.30;;;2.53;;
23519;SDS011;11936;50.820;4.336;2023-03-13T16:18:04;6.47;;;2.53;;
23519;SDS011;11936;50.820;4.336;2023-03-13T16:20:31;16.60;;;2.70;;
23519;SDS011;11936;50.820;4.336;2023-03-13T16:22:58;14.95;;;2.38;;
23519;SDS011;11936;50.820;4.336;2023-03-13T16:25:27;11.95;;;2.88;;
23519;SDS011;11936;50.820;4.336;2023-03-13T16:27:54;11.20;;;2.25;;
23519;SDS011;11936;50.820;4.336;2023-03-13T16:30:24;13.95;;;3.20;;
23519;SDS011;11936;50.820;4.336;2023-03-13T16:32:52;8.00;;;2.03;;
23519;SDS011;11936;50.820;4.336;2023-03-13T16:35:18;14.15;;;3.08;;
23519;SDS011;11936;50.820;4.336;2023-03-13T16:37:44;11.48;;;2.15;;
23519;SDS011;11936;50.820;4.336;2023-03-13T16:40:21;9.93;;;2.33;;
23519;SDS011;11936;50.820;4.336;2023-03-13T16:42:48;11.60;;;3.15;;
23519;SDS011;11936;50.820;4.336;2023-03-13T16:45:14;7.93;;;2.60;;